Time;durP1;ratioP1;P1;durP2;ratioP2;P2;SDS_P1;SDS_P2;PMS_P1;PMS_P2;Temp;Humidity;BMP_temperature;BMP_pressure;BME280_temperature;BME280_humidity;BME280_pressure;Samples;Min_cycle;Max_cycle;Signal;HPM_P1;HPM_P2
2023/12/18 00:00:47;;;;;;;0.00;0.00;;;24.90;47.90;;;;;;5071462;28;20198;-45
2023/12/18 00:03:18;;;;;;;0.00;0.00;;;24.90;47.90;;;;;;5071806;28;20199;-41
2023/12/18 00:05:49;;;;;;;0.00;0.00;;;25.00;47.90;;;;;;5071958;28;20226;-46
2023/12/18 00:08:21;;;;;;;0.00;0.00;;;25.00;47.90;;;;;;5071703;28;20202;-43
2023/12/18 00:10:52;;;;;;;0.00;0.00;;;25.00;47.90;;;;;;5071468;28;20190;-44
2023/12/18 00:13:23;;;;;;;0.00;0.00;;;25.00;47.90;;;;;;5071119;28;20234;-46
2023/12/18 00:15:54;;;;;;;0.00;0.00;;;25.00;47.90;;;;;;5071498;28;20226;-46
2023/12/18 00:18:24;;;;;;;0.00;0.00;;;25.00;47.90;;;;;;5071578;28;20199;-44
2023/12/18 00:20:55;;;;;;;0.00;0.00;;;25.00;47.90;;;;;;5071668;28;20206;-45
2023/12/18 00:23:27;;;;;;;0.00;0.00;;;25.00;47.90;;;;;;5071360;28;20198;-46
2023/12/18 00:25:58;;;;;;;0.00;0.00;;;25.00;47.80;;;;;;5071848;28;20529;-44
2023/12/18 00:28:29;;;;;;;0.00;0.00;;;25.00;47.70;;;;;;5071584;28;20205;-43
2023/12/18 00:31:00;;;;;;;0.00;0.00;;;25.00;47.70;;;;;;5068580;28;20198;-46
2023/12/18 00:33:30;;;;;;;0.00;0.00;;;25.00;47.60;;;;;;5071033;28;20565;-47
2023/12/18 00:36:01;;;;;;;0.00;0.00;;;25.10;47.60;;;;;;5070871;28;20194;-44
2023/12/18 00:38:33;;;;;;;0.00;0.00;;;25.10;47.60;;;;;;5070707;28;20214;-51
2023/12/18 00:41:04;;;;;;;0.00;0.00;;;25.10;47.60;;;;;;5071701;28;20197;-45
2023/12/18 00:43:35;;;;;;;0.00;0.00;;;25.10;47.50;;;;;;5070807;28;20534;-47
2023/12/18 00:46:07;;;;;;;0.00;0.00;;;25.10;47.50;;;;;;5071295;28;20201;-42
2023/12/18 00:48:38;;;;;;;0.00;0.00;;;25.10;47.40;;;;;;5070927;28;20191;-49
2023/12/18 00:51:12;;;;;;;0.00;0.00;;;25.10;47.40;;;;;;5070411;28;20183;-45
2023/12/18 00:53:44;;;;;;;0.00;0.00;;;25.10;47.40;;;;;;5070703;28;20219;-50
2023/12/18 00:56:15;;;;;;;0.00;0.00;;;25.10;47.40;;;;;;5071224;28;20199;-47
2023/12/18 00:58:46;;;;;;;0.00;0.00;;;25.10;47.30;;;;;;5083463;22;20231;-50
2023/12/18 01:01:16;;;;;;;0.00;0.00;;;25.10;47.30;;;;;;5071202;28;20195;-50
2023/12/18 01:03:47;;;;;;;0.00;0.00;;;25.10;47.30;;;;;;5071341;28;20195;-49
2023/12/18 01:06:18;;;;;;;0.00;0.00;;;25.10;47.30;;;;;;5070383;28;20201;-46
2023/12/18 01:08:50;;;;;;;0.00;0.00;;;25.10;47.30;;;;;;5070278;28;20195;-48
2023/12/18 01:11:21;;;;;;;0.05;0.05;;;25.10;47.30;;;;;;5070832;28;20195;-46
2023/12/18 01:13:52;;;;;;;0.00;0.00;;;25.10;47.20;;;;;;5070608;28;20238;-46
2023/12/18 01:16:22;;;;;;;0.00;0.00;;;25.10;47.10;;;;;;5070303;28;20195;-46
2023/12/18 01:18:53;;;;;;;0.00;0.00;;;25.10;47.10;;;;;;5070159;28;20195;-46
2023/12/18 01:21:24;;;;;;;0.00;0.00;;;25.20;47.20;;;;;;5070757;28;20195;-46
2023/12/18 01:23:56;;;;;;;0.00;0.00;;;25.20;47.10;;;;;;5070689;28;20224;-46
2023/12/18 01:26:27;;;;;;;0.03;0.03;;;25.20;47.10;;;;;;5073500;28;20190;-48
2023/12/18 01:28:58;;;;;;;0.00;0.00;;;25.20;47.10;;;;;;5074935;28;20204;-47
2023/12/18 01:31:28;;;;;;;0.00;0.00;;;25.20;46.90;;;;;;5074628;28;20650;-47
2023/12/18 01:34:00;;;;;;;0.08;0.08;;;25.20;46.80;;;;;;5073839;28;20226;-47
2023/12/18 01:36:30;;;;;;;0.00;0.00;;;25.20;46.70;;;;;;5074694;28;20199;-45
2023/12/18 01:39:03;;;;;;;0.00;0.00;;;25.20;46.80;;;;;;5074642;28;20677;-45
2023/12/18 01:41:33;;;;;;;0.00;0.00;;;25.20;46.80;;;;;;5074203;28;20228;-45
2023/12/18 01:44:04;;;;;;;0.00;0.00;;;25.20;46.80;;;;;;5074316;28;20223;-46
2023/12/18 01:46:37;;;;;;;0.00;0.00;;;25.20;46.70;;;;;;5074469;28;20194;-46
2023/12/18 01:49:10;;;;;;;0.05;0.05;;;25.20;46.70;;;;;;5074439;28;20259;-46
2023/12/18 01:51:40;;;;;;;0.00;0.00;;;25.20;46.80;;;;;;5074383;28;20565;-46
2023/12/18 01:54:13;;;;;;;0.00;0.00;;;25.30;46.70;;;;;;5074071;28;20597;-44
2023/12/18 01:56:45;;;;;;;0.00;0.00;;;25.30;46.60;;;;;;5074216;28;20194;-47
2023/12/18 01:59:16;;;;;;;0.00;0.00;;;25.30;46.60;;;;;;5085886;22;20227;-46
2023/12/18 02:01:47;;;;;;;0.00;0.00;;;25.30;46.60;;;;;;5073832;28;20210;-43
2023/12/18 02:04:19;;;;;;;0.00;0.00;;;25.30;46.50;;;;;;5074530;28;20219;-46
2023/12/18 02:06:51;;;;;;;0.00;0.00;;;25.30;46.60;;;;;;5073997;28;20195;-42
2023/12/18 02:09:24;;;;;;;0.00;0.00;;;25.30;46.50;;;;;;5073466;28;20190;-49
2023/12/18 02:11:54;;;;;;;0.00;0.00;;;25.30;45.60;;;;;;5073598;28;20194;-55
2023/12/18 02:14:25;;;;;;;0.00;0.00;;;25.20;44.90;;;;;;5073376;28;20226;-45
2023/12/18 02:16:56;;;;;;;0.00;0.00;;;25.10;45.00;;;;;;5073466;28;20191;-47
2023/12/18 02:19:28;;;;;;;0.00;0.00;;;25.10;45.20;;;;;;5073541;28;20201;-44
2023/12/18 02:21:59;;;;;;;0.00;0.00;;;25.00;45.30;;;;;;5073609;28;20203;-42
2023/12/18 02:24:32;;;;;;;0.00;0.00;;;25.00;45.50;;;;;;5073628;28;20573;-45
2023/12/18 02:27:03;;;;;;;0.00;0.00;;;24.90;45.50;;;;;;5073818;28;20555;-43
2023/12/18 02:29:33;;;;;;;0.00;0.00;;;24.90;45.60;;;;;;5073267;28;20198;-42
2023/12/18 02:32:04;;;;;;;0.00;0.00;;;24.90;45.50;;;;;;5073239;28;20220;-42
2023/12/18 02:34:35;;;;;;;0.00;0.00;;;24.90;45.60;;;;;;5073039;28;20238;-48
2023/12/18 02:37:06;;;;;;;0.00;0.00;;;24.90;45.60;;;;;;5072160;28;20198;-42
2023/12/18 02:39:38;;;;;;;0.00;0.00;;;24.90;45.60;;;;;;5072955;28;20682;-42
2023/12/18 02:42:09;;;;;;;0.03;0.03;;;24.90;45.60;;;;;;5072619;28;20199;-49
2023/12/18 02:44:40;;;;;;;0.00;0.00;;;24.90;45.60;;;;;;5073038;28;20580;-45
2023/12/18 02:47:10;;;;;;;0.10;0.10;;;24.90;45.70;;;;;;5072741;28;20206;-44
2023/12/18 02:49:41;;;;;;;0.00;0.00;;;24.90;45.80;;;;;;5073193;28;20269;-41
2023/12/18 02:52:12;;;;;;;0.00;0.00;;;24.90;45.80;;;;;;5073128;28;20210;-42
2023/12/18 02:54:44;;;;;;;0.00;0.00;;;24.90;45.80;;;;;;5072358;28;20207;-45
2023/12/18 02:57:13;;;;;;;0.00;0.00;;;24.90;45.80;;;;;;5072913;28;20195;-45
2023/12/18 02:59:44;;;;;;;0.00;0.00;;;24.90;45.70;;;;;;5073045;28;20234;-43
2023/12/18 03:02:15;;;;;;;0.00;0.00;;;25.00;45.80;;;;;;5072896;28;20191;-45
2023/12/18 03:04:46;;;;;;;0.10;0.10;;;24.90;45.70;;;;;;5072423;28;20557;-45
2023/12/18 03:07:16;;;;;;;0.00;0.00;;;25.00;45.80;;;;;;5073075;28;20565;-41
2023/12/18 03:09:49;;;;;;;0.00;0.00;;;25.00;45.80;;;;;;5072394;28;20666;-43
2023/12/18 03:12:20;;;;;;;0.00;0.00;;;25.00;45.90;;;;;;5072701;28;20209;-45
2023/12/18 03:14:50;;;;;;;0.00;0.00;;;25.00;45.90;;;;;;5072794;28;20214;-41
2023/12/18 03:17:21;;;;;;;0.00;0.00;;;25.00;45.90;;;;;;5072470;28;20198;-41
2023/12/18 03:19:52;;;;;;;0.00;0.00;;;25.00;45.90;;;;;;5072156;28;20205;-41
2023/12/18 03:22:23;;;;;;;0.00;0.00;;;25.10;46.00;;;;;;5072295;28;20598;-40
2023/12/18 03:24:55;;;;;;;0.00;0.00;;;25.10;46.00;;;;;;5072308;28;20215;-46
2023/12/18 03:27:26;;;;;;;0.00;0.00;;;25.10;46.10;;;;;;5072397;28;20198;-47
2023/12/18 03:29:57;;;;;;;0.00;0.00;;;25.10;46.10;;;;;;5072659;28;20662;-42
2023/12/18 03:32:27;;;;;;;0.00;0.00;;;25.10;46.10;;;;;;5071997;28;20194;-42
2023/12/18 03:34:58;;;;;;;0.00;0.00;;;25.10;46.30;;;;;;5071700;28;20222;-44
2023/12/18 03:37:29;;;;;;;0.00;0.00;;;25.10;46.20;;;;;;5072331;28;20191;-44
2023/12/18 03:40:01;;;;;;;0.00;0.00;;;25.10;46.20;;;;;;5072206;28;20198;-43
2023/12/18 03:42:32;;;;;;;0.00;0.00;;;25.20;46.20;;;;;;5072254;28;20198;-39
2023/12/18 03:45:03;;;;;;;0.03;0.03;;;25.20;46.30;;;;;;5071940;28;20229;-40
2023/12/18 03:47:34;;;;;;;0.00;0.00;;;25.20;46.30;;;;;;5071410;28;20566;-43
2023/12/18 03:50:04;;;;;;;0.00;0.00;;;25.20;46.20;;;;;;5071990;28;20203;-40
2023/12/18 03:52:35;;;;;;;0.00;0.00;;;25.20;46.30;;;;;;5071633;28;20198;-45
2023/12/18 03:55:08;;;;;;;0.00;0.00;;;25.30;46.40;;;;;;5071968;28;20589;-43
2023/12/18 03:57:39;;;;;;;0.00;0.00;;;25.20;46.30;;;;;;5071933;28;20556;-41
2023/12/18 04:00:10;;;;;;;0.00;0.00;;;25.30;46.40;;;;;;5072459;28;20206;-43
2023/12/18 04:02:41;;;;;;;0.00;0.00;;;25.30;46.60;;;;;;5071789;28;20194;-46
2023/12/18 04:05:12;;;;;;;0.03;0.03;;;25.30;46.40;;;;;;5071494;28;20203;-45
2023/12/18 04:07:43;;;;;;;0.00;0.00;;;25.30;46.40;;;;;;5071579;28;20198;-42
2023/12/18 04:10:15;;;;;;;0.00;0.00;;;25.30;46.40;;;;;;5071444;28;20555;-40
2023/12/18 04:12:46;;;;;;;0.00;0.00;;;25.30;46.40;;;;;;5071431;28;20561;-41
2023/12/18 04:15:17;;;;;;;0.00;0.00;;;25.30;46.50;;;;;;5071281;28;20297;-45
2023/12/18 04:17:47;;;;;;;0.00;0.00;;;25.30;46.50;;;;;;5071798;28;20205;-42
2023/12/18 04:20:18;;;;;;;0.00;0.00;;;25.40;46.60;;;;;;5071846;28;20210;-50
2023/12/18 04:22:49;;;;;;;0.00;0.00;;;25.40;46.60;;;;;;5071434;28;20221;-45
2023/12/18 04:25:22;;;;;;;0.00;0.00;;;25.40;46.60;;;;;;5071146;28;20219;-41
2023/12/18 04:27:53;;;;;;;0.00;0.00;;;25.40;46.60;;;;;;5070920;28;20227;-42
2023/12/18 04:30:24;;;;;;;0.10;0.10;;;25.40;46.60;;;;;;5071037;28;20191;-46
2023/12/18 04:32:54;;;;;;;0.00;0.00;;;25.50;46.60;;;;;;5071261;28;20542;-44
2023/12/18 04:35:25;;;;;;;0.00;0.00;;;25.50;46.60;;;;;;5071298;28;20214;-45
2023/12/18 04:37:56;;;;;;;0.00;0.00;;;25.50;46.60;;;;;;5070966;28;20296;-43
2023/12/18 04:40:28;;;;;;;0.00;0.00;;;25.50;46.60;;;;;;5070800;28;20205;-45
2023/12/18 04:42:59;;;;;;;0.00;0.00;;;25.50;46.60;;;;;;5071223;28;20310;-45
2023/12/18 04:45:30;;;;;;;0.00;0.00;;;25.50;46.60;;;;;;5071066;28;20305;-48
2023/12/18 04:48:00;;;;;;;0.00;0.00;;;25.60;46.60;;;;;;5070712;28;20199;-43
2023/12/18 04:50:31;;;;;;;0.00;0.00;;;25.50;46.50;;;;;;5070581;28;20194;-45
2023/12/18 04:53:02;;;;;;;0.00;0.00;;;25.60;46.60;;;;;;5070802;28;20221;-43
2023/12/18 04:55:34;;;;;;;0.00;0.00;;;25.60;47.20;;;;;;5070608;28;20215;-41
2023/12/18 04:58:05;;;;;;;0.00;0.00;;;25.60;46.60;;;;;;5071390;28;20199;-45
2023/12/18 05:00:36;;;;;;;0.00;0.00;;;25.60;46.80;;;;;;5073421;28;20322;-45
2023/12/18 05:03:07;;;;;;;0.00;0.00;;;25.60;46.60;;;;;;5074929;28;20195;-42
2023/12/18 05:05:37;;;;;;;0.00;0.00;;;25.60;46.60;;;;;;5074900;28;20221;-42
2023/12/18 05:08:08;;;;;;;0.00;0.00;;;25.60;46.60;;;;;;5075233;28;20195;-46
2023/12/18 05:10:41;;;;;;;0.00;0.00;;;25.60;46.50;;;;;;5074914;28;20565;-46
2023/12/18 05:13:12;;;;;;;0.00;0.00;;;25.60;46.50;;;;;;5074870;28;20569;-45
2023/12/18 05:15:43;;;;;;;0.00;0.00;;;25.60;46.40;;;;;;5074662;28;20219;-46
2023/12/18 05:18:13;;;;;;;0.00;0.00;;;25.60;46.40;;;;;;5074722;28;20191;-44
2023/12/18 05:20:44;;;;;;;0.00;0.00;;;25.60;46.40;;;;;;5074849;28;20199;-46
2023/12/18 05:23:15;;;;;;;0.00;0.00;;;25.60;46.40;;;;;;5075225;28;20199;-44
2023/12/18 05:25:47;;;;;;;0.00;0.00;;;25.60;46.40;;;;;;5074557;28;20221;-46
2023/12/18 05:28:18;;;;;;;0.00;0.00;;;25.60;46.40;;;;;;5074870;28;20195;-44
2023/12/18 05:30:49;;;;;;;0.00;0.00;;;25.60;46.40;;;;;;5074240;28;20273;-39
2023/12/18 05:33:20;;;;;;;0.00;0.00;;;25.60;46.40;;;;;;5074701;28;20234;-40
2023/12/18 05:35:50;;;;;;;0.00;0.00;;;25.60;46.30;;;;;;5074504;28;20221;-39
2023/12/18 05:38:21;;;;;;;0.00;0.00;;;25.60;46.40;;;;;;5074171;28;20546;-42
2023/12/18 05:40:54;;;;;;;0.00;0.00;;;25.60;46.30;;;;;;5073729;28;20199;-40
2023/12/18 05:43:24;;;;;;;0.00;0.00;;;25.60;46.40;;;;;;5054297;28;20199;-39
2023/12/18 05:45:55;;;;;;;0.00;0.00;;;25.60;46.40;;;;;;5054031;28;20709;-40
2023/12/18 05:48:26;;;;;;;0.00;0.00;;;25.50;46.30;;;;;;5054286;28;20195;-40
2023/12/18 05:50:56;;;;;;;0.00;0.00;;;25.50;46.40;;;;;;5053923;28;20206;-39
2023/12/18 05:53:27;;;;;;;0.00;0.00;;;25.50;46.40;;;;;;5053683;28;20219;-40
2023/12/18 05:56:00;;;;;;;0.00;0.00;;;25.50;46.40;;;;;;5053796;28;20188;-40
2023/12/18 05:58:30;;;;;;;0.00;0.00;;;25.50;46.40;;;;;;5054435;28;20196;-42
2023/12/18 06:01:01;;;;;;;0.00;0.00;;;25.50;46.40;;;;;;5053939;28;20218;-42
2023/12/18 06:03:32;;;;;;;0.00;0.00;;;25.50;46.50;;;;;;5054443;28;20207;-40
2023/12/18 06:06:02;;;;;;;0.00;0.00;;;25.50;46.50;;;;;;5053954;28;20199;-40
2023/12/18 06:08:33;;;;;;;0.00;0.00;;;25.40;46.50;;;;;;5053686;28;20199;-40
2023/12/18 06:11:06;;;;;;;0.00;0.00;;;25.40;46.50;;;;;;5054556;28;20195;-39
2023/12/18 06:13:39;;;;;;;0.00;0.00;;;25.40;46.50;;;;;;5073858;28;20717;-40
2023/12/18 06:16:10;;;;;;;0.00;0.00;;;25.40;46.50;;;;;;5074086;28;20199;-39
2023/12/18 06:18:41;;;;;;;0.00;0.00;;;25.40;46.50;;;;;;5073641;28;20206;-39
2023/12/18 06:21:11;;;;;;;0.00;0.00;;;25.40;46.60;;;;;;5073092;28;20194;-40
2023/12/18 06:23:44;;;;;;;0.00;0.00;;;25.40;46.60;;;;;;5073185;28;20663;-39
2023/12/18 06:26:17;;;;;;;0.00;0.00;;;25.40;46.50;;;;;;5073685;28;20194;-40
2023/12/18 06:28:47;;;;;;;0.00;0.00;;;25.40;46.50;;;;;;5073792;28;20191;-41
2023/12/18 06:31:18;;;;;;;0.00;0.00;;;25.40;46.50;;;;;;5073285;28;20202;-39
2023/12/18 06:33:49;;;;;;;0.00;0.00;;;25.40;46.50;;;;;;5072996;28;20215;-40
2023/12/18 06:36:20;;;;;;;0.00;0.00;;;25.40;46.60;;;;;;5072158;28;20199;-40
2023/12/18 06:38:51;;;;;;;0.00;0.00;;;25.30;46.50;;;;;;5073192;28;20209;-40
2023/12/18 06:41:24;;;;;;;0.00;0.00;;;25.30;46.50;;;;;;5073015;28;20248;-40
2023/12/18 06:43:54;;;;;;;0.00;0.00;;;25.30;46.50;;;;;;5073237;28;20573;-40
2023/12/18 06:46:25;;;;;;;0.00;0.00;;;25.30;46.60;;;;;;5072946;28;20713;-40
2023/12/18 06:48:56;;;;;;;0.00;0.00;;;25.30;46.60;;;;;;5072639;28;20214;-40
2023/12/18 06:51:28;;;;;;;0.00;0.00;;;25.30;46.60;;;;;;5072709;28;20213;-39
2023/12/18 06:53:59;;;;;;;0.00;0.00;;;25.30;46.70;;;;;;5072165;28;20234;-40
2023/12/18 06:56:32;;;;;;;0.00;0.00;;;25.30;46.70;;;;;;5072620;28;20194;-39
2023/12/18 06:59:03;;;;;;;0.00;0.00;;;25.30;46.70;;;;;;5073429;28;20229;-40
2023/12/18 07:01:33;;;;;;;0.00;0.00;;;25.20;46.70;;;;;;5072745;28;20199;-40
2023/12/18 07:04:04;;;;;;;0.00;0.00;;;25.20;46.60;;;;;;5072066;28;20238;-40
2023/12/18 07:06:35;;;;;;;0.00;0.00;;;25.20;46.70;;;;;;5072608;28;20191;-40
2023/12/18 07:09:06;;;;;;;0.00;0.00;;;25.20;46.70;;;;;;5072654;28;20601;-40
2023/12/18 07:11:38;;;;;;;0.00;0.00;;;25.20;46.70;;;;;;5072520;28;20206;-40
2023/12/18 07:14:09;;;;;;;0.00;0.00;;;25.20;46.70;;;;;;5072254;28;20226;-40
2023/12/18 07:16:40;;;;;;;0.00;0.00;;;25.20;46.80;;;;;;5072288;28;20564;-39
2023/12/18 07:19:10;;;;;;;0.00;0.00;;;25.20;46.80;;;;;;5071674;28;20199;-39
2023/12/18 07:21:41;;;;;;;0.00;0.00;;;25.10;46.70;;;;;;5071031;28;20198;-39
2023/12/18 07:24:12;;;;;;;0.00;0.00;;;25.20;46.80;;;;;;5070925;28;20226;-42
2023/12/18 07:26:44;;;;;;;0.00;0.00;;;25.10;46.70;;;;;;5072476;28;20217;-39
2023/12/18 07:29:15;;;;;;;0.00;0.00;;;25.10;46.80;;;;;;5072201;28;20195;-39
2023/12/18 07:31:46;;;;;;;0.00;0.00;;;25.10;46.80;;;;;;5072172;28;20206;-40
2023/12/18 07:34:17;;;;;;;0.00;0.00;;;25.00;46.80;;;;;;5071787;28;20223;-40
2023/12/18 07:36:47;;;;;;;0.00;0.00;;;25.00;46.80;;;;;;5070528;28;20202;-40
2023/12/18 07:39:18;;;;;;;0.00;0.00;;;25.00;46.90;;;;;;5072228;28;20198;-40
2023/12/18 07:41:51;;;;;;;0.00;0.00;;;25.00;46.90;;;;;;5071841;28;20256;-44
2023/12/18 07:44:21;;;;;;;0.00;0.00;;;25.00;46.90;;;;;;5071955;28;20214;-39
2023/12/18 07:46:57;;;;;;;0.00;0.00;;;25.00;46.90;;;;;;5072267;28;20198;-40
2023/12/18 07:49:28;;;;;;;0.00;0.00;;;24.90;46.90;;;;;;5054257;28;20212;-42
2023/12/18 07:51:59;;;;;;;0.00;0.00;;;24.90;46.90;;;;;;5071554;28;20205;-50
2023/12/18 07:54:29;;;;;;;0.00;0.00;;;24.90;47.00;;;;;;5071344;28;20706;-51
2023/12/18 07:57:02;;;;;;;0.00;0.00;;;24.90;47.10;;;;;;5071942;28;20203;-45
2023/12/18 07:59:36;;;;;;;0.00;0.00;;;24.80;47.20;;;;;;5072029;28;20209;-44
2023/12/18 08:02:07;;;;;;;0.00;0.00;;;24.70;47.30;;;;;;5071566;28;20562;-39
2023/12/18 08:04:38;;;;;;;0.00;0.00;;;24.60;47.40;;;;;;5071012;28;20222;-40
2023/12/18 08:07:09;;;;;;;0.00;0.00;;;24.60;47.50;;;;;;5071205;28;20288;-39
2023/12/18 08:09:40;;;;;;;0.00;0.00;;;24.50;47.60;;;;;;5071080;28;20191;-44
2023/12/18 08:12:13;;;;;;;0.00;0.00;;;24.50;47.70;;;;;;5071243;28;20207;-46
2023/12/18 08:14:46;;;;;;;0.00;0.00;;;24.50;47.80;;;;;;5070933;28;20234;-42
2023/12/18 08:17:17;;;;;;;0.00;0.00;;;24.50;47.90;;;;;;5067028;28;20191;-43
2023/12/18 08:19:49;;;;;;;0.00;0.00;;;24.40;47.80;;;;;;5068623;28;20643;-39
2023/12/18 08:22:20;;;;;;;0.00;0.00;;;24.40;47.90;;;;;;5070393;28;20684;-40
2023/12/18 08:24:51;;;;;;;0.10;0.10;;;24.40;47.90;;;;;;5070801;28;20214;-39
2023/12/18 08:27:23;;;;;;;0.00;0.00;;;24.40;47.90;;;;;;5067882;28;20195;-40
2023/12/18 08:29:54;;;;;;;0.00;0.00;;;24.40;48.00;;;;;;5070278;28;20191;-44
2023/12/18 08:32:25;;;;;;;0.00;0.00;;;24.40;48.00;;;;;;5070567;28;20191;-39
2023/12/18 08:34:58;;;;;;;0.00;0.00;;;24.40;48.60;;;;;;5069206;28;20223;-39
2023/12/18 08:37:28;;;;;;;0.00;0.00;;;24.30;48.00;;;;;;5070699;28;20350;-42
2023/12/18 08:39:59;;;;;;;0.00;0.00;;;24.30;48.00;;;;;;5070422;28;20281;-39
2023/12/18 08:42:32;;;;;;;0.00;0.00;;;24.30;48.00;;;;;;5069585;28;20206;-39
2023/12/18 08:45:03;;;;;;;0.00;0.00;;;24.30;48.00;;;;;;5068215;28;20215;-39
2023/12/18 08:47:34;;;;;;;0.00;0.00;;;24.30;48.00;;;;;;5069233;28;20198;-39
2023/12/18 08:50:05;;;;;;;0.00;0.00;;;24.30;48.00;;;;;;5069390;28;20203;-38
2023/12/18 08:52:35;;;;;;;0.00;0.00;;;24.30;48.00;;;;;;5070737;28;20195;-38
2023/12/18 08:55:06;;;;;;;0.00;0.00;;;24.30;48.00;;;;;;5050348;28;20242;-38
2023/12/18 08:57:39;;;;;;;0.00;0.00;;;24.30;48.10;;;;;;5050083;28;20642;-41
2023/12/18 09:00:11;;;;;;;0.00;0.00;;;24.30;48.10;;;;;;5066214;28;20202;-41
2023/12/18 09:02:41;;;;;;;0.00;0.00;;;24.20;48.10;;;;;;5070479;28;20624;-42
2023/12/18 09:05:12;;;;;;;0.00;0.00;;;24.20;48.10;;;;;;5070544;28;20229;-39
2023/12/18 09:07:43;;;;;;;0.00;0.00;;;24.20;48.10;;;;;;5069663;28;20690;-40
2023/12/18 09:10:17;;;;;;;0.00;0.00;;;24.20;48.10;;;;;;5070636;28;20206;-39
2023/12/18 09:12:49;;;;;;;0.05;0.05;;;24.20;48.20;;;;;;5069675;28;20206;-41
2023/12/18 09:15:20;;;;;;;0.00;0.00;;;24.20;48.20;;;;;;5050623;28;20227;-39
2023/12/18 09:17:55;;;;;;;0.00;0.00;;;24.20;48.20;;;;;;5049554;28;20652;-44
2023/12/18 09:20:25;;;;;;;0.00;0.00;;;24.20;48.20;;;;;;5049936;28;20202;-44
2023/12/18 09:22:56;;;;;;;0.00;0.00;;;24.20;48.20;;;;;;5050176;28;20196;-42
2023/12/18 09:25:27;;;;;;;0.00;0.00;;;24.20;48.30;;;;;;5053853;28;20682;-42
2023/12/18 09:27:59;;;;;;;0.00;0.00;;;24.10;48.20;;;;;;5069933;28;20205;-41
2023/12/18 09:30:30;;;;;;;0.00;0.00;;;24.10;48.20;;;;;;5069338;28;20195;-45
2023/12/18 09:33:01;;;;;;;0.00;0.00;;;24.10;48.20;;;;;;5070658;28;20202;-44
2023/12/18 09:35:31;;;;;;;0.00;0.00;;;24.10;48.30;;;;;;5069582;28;20226;-42
2023/12/18 09:38:02;;;;;;;0.00;0.00;;;24.10;48.30;;;;;;5070601;28;20199;-42
2023/12/18 09:40:33;;;;;;;0.00;0.00;;;24.10;48.30;;;;;;5069494;28;20191;-44
2023/12/18 09:43:06;;;;;;;0.00;0.00;;;24.10;48.30;;;;;;5070219;28;20199;-40
2023/12/18 09:45:37;;;;;;;0.00;0.00;;;24.10;48.30;;;;;;5070033;28;20573;-39
2023/12/18 09:48:08;;;;;;;0.10;0.10;;;24.00;48.30;;;;;;5073171;28;20206;-42
2023/12/18 09:50:39;;;;;;;0.00;0.00;;;24.00;48.30;;;;;;5074001;28;20195;-39
2023/12/18 09:53:12;;;;;;;0.00;0.00;;;24.00;48.30;;;;;;5073133;28;20271;-38
2023/12/18 09:55:43;;;;;;;0.00;0.00;;;24.00;48.40;;;;;;5074429;28;20253;-43
2023/12/18 09:58:18;;;;;;;0.00;0.00;;;24.00;48.40;;;;;;5073431;28;20202;-39
2023/12/18 10:00:49;;;;;;;0.00;0.00;;;24.00;48.40;;;;;;5073894;28;20202;-39
2023/12/18 10:03:20;;;;;;;0.00;0.00;;;24.00;48.40;;;;;;5073819;28;20194;-41
2023/12/18 10:05:51;;;;;;;0.00;0.00;;;24.00;48.40;;;;;;5073854;28;20215;-40
2023/12/18 10:08:22;;;;;;;0.00;0.00;;;24.00;48.40;;;;;;5072579;28;20205;-46
2023/12/18 10:10:53;;;;;;;0.00;0.00;;;24.00;48.40;;;;;;5073427;28;20190;-46
2023/12/18 10:13:26;;;;;;;0.00;0.00;;;24.00;48.40;;;;;;5053454;28;20195;-42
2023/12/18 10:15:58;;;;;;;0.08;0.08;;;24.00;48.40;;;;;;5053112;28;20230;-39
2023/12/18 10:18:29;;;;;;;0.00;0.00;;;24.00;48.40;;;;;;5052245;28;20196;-40
2023/12/18 10:21:00;;;;;;;0.10;0.10;;;23.90;48.30;;;;;;5057914;28;20195;-40
2023/12/18 10:23:35;;;;;;;0.08;0.08;;;24.00;48.30;;;;;;5073289;28;20209;-42
2023/12/18 10:26:06;;;;;;;0.10;0.10;;;23.90;48.30;;;;;;5072274;28;20206;-40
2023/12/18 10:28:39;;;;;;;0.00;0.00;;;23.90;48.30;;;;;;5072420;28;20213;-42
2023/12/18 10:31:10;;;;;;;0.10;0.10;;;23.90;48.30;;;;;;5072589;28;20194;-39
2023/12/18 10:33:41;;;;;;;0.10;0.10;;;23.90;48.30;;;;;;5072911;28;20202;-39
2023/12/18 10:36:12;;;;;;;0.05;0.05;;;23.90;48.20;;;;;;5072185;28;20294;-39
2023/12/18 10:38:50;;;;;;;0.00;0.00;;;23.80;48.20;;;;;;5073043;28;20562;-41
2023/12/18 10:41:23;;;;;;;0.00;0.00;;;23.80;48.20;;;;;;5071788;28;20654;-41
2023/12/18 10:43:57;;;;;;;0.00;0.00;;;23.80;48.20;;;;;;5071964;28;20206;-40
2023/12/18 10:46:28;;;;;;;0.00;0.00;;;23.80;48.20;;;;;;5072154;28;20201;-40
2023/12/18 10:49:02;;;;;;;0.00;0.00;;;23.80;48.30;;;;;;5071734;28;20199;-46
2023/12/18 10:51:36;;;;;;;0.00;0.00;;;23.80;48.20;;;;;;5072883;28;20230;-40
2023/12/18 10:54:07;;;;;;;0.00;0.00;;;23.80;48.30;;;;;;5072749;28;20214;-42
2023/12/18 10:56:40;;;;;;;0.00;0.00;;;23.80;48.20;;;;;;5071318;28;20230;-40
2023/12/18 10:59:14;;;;;;;0.00;0.00;;;23.80;48.90;;;;;;5072997;28;20206;-45
2023/12/18 11:01:45;;;;;;;0.00;0.00;;;23.80;48.30;;;;;;5071779;28;20199;-46
2023/12/18 11:04:18;;;;;;;0.03;0.03;;;23.80;48.20;;;;;;5072892;28;20210;-40
2023/12/18 11:06:50;;;;;;;0.10;0.10;;;23.80;48.30;;;;;;5072893;28;20209;-40
2023/12/18 11:09:20;;;;;;;0.05;0.05;;;23.80;48.20;;;;;;5071911;28;20194;-44
2023/12/18 11:11:51;;;;;;;0.00;0.00;;;23.70;48.20;;;;;;5071745;28;20205;-45
2023/12/18 11:14:39;;;;;;;0.00;0.00;;;23.70;48.10;;;;;;5069693;28;20207;-43
2023/12/18 11:17:19;;;;;;;0.00;0.00;;;23.70;48.20;;;;;;5070832;28;20211;-43
2023/12/18 11:19:56;;;;;;;0.00;0.00;;;23.70;48.10;;;;;;5071130;28;20197;-43
2023/12/18 11:22:42;;;;;;;0.00;0.00;;;23.70;48.10;;;;;;5070332;28;20194;-42
2023/12/18 11:25:13;;;;;;;0.10;0.10;;;23.70;48.10;;;;;;5070855;28;20206;-42
2023/12/18 11:27:45;;;;;;;0.00;0.00;;;23.70;48.10;;;;;;5069839;28;20639;-45
2023/12/18 11:30:31;;;;;;;0.00;0.00;;;23.70;48.20;;;;;;5072151;28;20202;-43
2023/12/18 11:33:06;;;;;;;0.00;0.00;;;23.60;48.10;;;;;;5068519;28;20210;-40
2023/12/18 11:35:37;;;;;;;0.03;0.03;;;23.60;48.10;;;;;;5070979;28;20226;-41
2023/12/18 11:38:09;;;;;;;0.00;0.00;;;23.60;48.10;;;;;;5071601;28;20183;-41
2023/12/18 11:40:43;;;;;;;0.10;0.10;;;23.60;48.10;;;;;;5068661;28;20190;-44
2023/12/18 11:43:14;;;;;;;0.00;0.00;;;23.60;48.20;;;;;;5071506;28;20206;-48
2023/12/18 11:45:48;;;;;;;0.00;0.00;;;23.60;48.20;;;;;;5069175;28;20248;-43
2023/12/18 11:48:20;;;;;;;0.00;0.00;;;23.60;48.20;;;;;;5071359;28;20558;-47
2023/12/18 11:50:52;;;;;;;0.10;0.10;;;23.60;48.20;;;;;;5071683;28;20201;-44
2023/12/18 11:53:35;;;;;;;0.00;0.00;;;23.60;48.20;;;;;;5069272;28;20194;-41
2023/12/18 11:56:12;;;;;;;0.00;0.00;;;23.50;48.10;;;;;;5069481;28;20577;-44
2023/12/18 11:58:48;;;;;;;0.00;0.00;;;23.50;48.10;;;;;;5069661;28;20191;-63
2023/12/18 12:01:24;;;;;;;0.00;0.00;;;23.50;48.10;;;;;;5071498;28;20213;-42
2023/12/18 12:03:57;;;;;;;0.00;0.00;;;23.50;48.10;;;;;;5071476;28;20221;-41
2023/12/18 12:06:28;;;;;;;0.00;0.00;;;23.50;48.10;;;;;;5069350;28;20279;-41
2023/12/18 12:08:59;;;;;;;0.00;0.00;;;23.50;48.10;;;;;;5070898;28;20554;-41
2023/12/18 12:11:30;;;;;;;0.00;0.00;;;23.50;48.10;;;;;;5071100;28;20195;-45
2023/12/18 12:14:01;;;;;;;0.10;0.10;;;23.50;48.10;;;;;;5067899;28;20209;-44
2023/12/18 12:16:34;;;;;;;0.00;0.00;;;23.50;48.10;;;;;;5071000;28;20215;-42
2023/12/18 12:19:04;;;;;;;0.00;0.00;;;23.50;48.10;;;;;;5071529;28;20244;-43
2023/12/18 12:21:36;;;;;;;0.00;0.00;;;23.40;48.00;;;;;;5071637;28;20206;-45
2023/12/18 12:24:08;;;;;;;0.00;0.00;;;23.40;48.70;;;;;;5071336;28;20288;-42
2023/12/18 12:26:40;;;;;;;0.10;0.10;;;23.40;48.10;;;;;;5071484;28;20206;-44
2023/12/18 12:29:11;;;;;;;0.00;0.00;;;23.40;48.10;;;;;;5071582;28;20198;-44
2023/12/18 12:31:44;;;;;;;0.00;0.00;;;23.40;48.00;;;;;;5071427;28;20252;-42
2023/12/18 12:34:16;;;;;;;0.10;0.10;;;23.40;48.10;;;;;;5071051;28;20238;-43
2023/12/18 12:36:48;;;;;;;0.00;0.00;;;23.40;48.10;;;;;;5070982;28;20231;-43
2023/12/18 12:39:18;;;;;;;0.00;0.00;;;23.40;48.10;;;;;;5071106;28;20197;-39
2023/12/18 12:41:49;;;;;;;0.00;0.00;;;23.40;48.10;;;;;;5070258;28;20557;-42
2023/12/18 12:44:20;;;;;;;0.00;0.00;;;23.40;48.10;;;;;;5071003;28;20674;-44
2023/12/18 12:46:53;;;;;;;0.03;0.03;;;23.30;48.00;;;;;;5071066;28;20187;-41
2023/12/18 12:49:24;;;;;;;0.00;0.00;;;23.40;48.10;;;;;;5070816;28;20218;-45
2023/12/18 12:51:55;;;;;;;0.00;0.00;;;23.40;48.10;;;;;;5070969;28;20562;-45
2023/12/18 12:54:27;;;;;;;0.00;0.00;;;23.40;48.00;;;;;;5070875;28;20218;-44
2023/12/18 12:56:58;;;;;;;0.10;0.10;;;23.30;48.00;;;;;;5070457;28;20222;-41
2023/12/18 12:59:28;;;;;;;0.00;0.00;;;23.30;48.00;;;;;;5069465;28;20207;-41
2023/12/18 13:02:01;;;;;;;0.10;0.10;;;23.30;48.00;;;;;;5071085;28;20195;-42
2023/12/18 13:04:32;;;;;;;0.00;0.00;;;23.30;48.00;;;;;;5070897;28;20562;-46
2023/12/18 13:07:02;;;;;;;0.00;0.00;;;23.30;48.00;;;;;;5070633;28;20206;-43
2023/12/18 13:09:33;;;;;;;0.10;0.10;;;23.30;48.00;;;;;;5070745;28;20195;-45